Latest Coastal Weather Observations for Darwin Harbour

IDD60701

Issued at 12:45 pm CST Thursday 23 October 2014 (issued every 10 minutes, with the page automatically refreshed every 10 minutes)

About coastal observations | Map of coastal stations | Coastal observations for NT | Marine services | Other Formats
Station Details ID: 014072 Name: DARWIN NTC AWS Lat: -12.47 Lon: 130.85 Height: 0.0 m
Data from the previous 72 hours. | See also: Recent months for locations in Northern Territory
Date/Time
CST
Temp

°C
Wind Pressure Rain
since 9am
mm
Weather Cloud Vis
km
Sea
Height
m
Swell
Dir
 
Speed
knots
Gust
knots
hPa Trend Height
m
Period
s
Dir
23/12:30pm 30.3 W 8 14 1011.8 - - - - - - - - -
23/12:00pm 30.0 W 6 12 1012.2 - - - - - - - - -
23/11:30am 31.5 E 5 9 1012.6 - - - - - - - - -
23/11:00am 30.7 E 9 13 1012.8 - - - - - - - - -
23/10:30am 30.4 E 9 16 1013.3 - - - - - - - - -
23/10:00am 29.8 E 12 18 1013.8 - - - - - - - - -
23/09:30am 29.6 ENE 6 13 1013.9 - - - - - - - - -
23/09:00am 28.6 ENE 7 12 1014.0 - - - - - - - - -
23/08:30am 28.5 ENE 6 12 1013.9 - - - - - - - - -
23/08:00am 27.9 ENE 4 8 1013.8 - - - - - - - - -
23/07:30am 27.4 ENE 5 9 1013.6 - - - - - - - - -
23/07:00am 27.2 ENE 4 7 1013.2 - - - - - - - - -
23/06:30am 26.9 ENE 3 6 1012.8 - - - - - - - - -
23/06:00am 26.8 ENE 3 6 1012.5 - - - - - - - - -
23/05:30am 27.0 NNE 4 6 1012.1 - - - - - - - - -
23/05:00am 26.9 NE 3 5 1011.7 - - - - - - - - -
23/04:30am 27.0 NNE 3 6 1011.8 - - - - - - - - -
23/04:00am 27.0 NE 4 6 1011.9 - - - - - - - - -
23/03:30am 27.3 NE 4 6 1012.0 - - - - - - - - -
23/03:00am 27.4 ENE 4 7 1012.0 - - - - - - - - -
23/02:30am 27.5 NE 5 10 1012.0 - - - - - - - - -
23/02:00am 27.7 NE 4 8 1012.3 - - - - - - - - -
23/01:30am 27.3 NNW 4 7 1012.2 - - - - - - - - -
23/01:00am 27.3 NNW 6 11 1012.5 - - - - - - - - -
23/12:30am 27.7 NNE 6 13 1012.8 - - - - - - - - -
23/12:00am 28.5 NW 6 11 1013.2 - - - - - - - - -
 
Date/Time
CST
Temp

°C
Wind Pressure Rain
since 9am
mm
Weather Cloud Vis
km
Sea
Height
m
Swell
Dir
 
Speed
knots
Gust
knots
hPa Trend Height
m
Period
s
Dir
22/11:30pm 28.6 NW 6 11 1013.1 - - - - - - - - -
22/11:00pm 28.6 WNW 8 13 1013.1 - - - - - - - - -
22/10:30pm 28.7 WNW 7 13 1013.1 - - - - - - - - -
22/10:00pm 28.8 NW 9 14 1012.5 - - - - - - - - -
22/09:30pm 29.0 W 7 10 1012.3 - - - - - - - - -
22/09:00pm 29.2 W 8 10 1011.7 - - - - - - - - -
22/08:30pm 30.6 NNE 2 3 1011.3 - - - - - - - - -
22/08:00pm 30.4 NNE 4 6 1010.7 - - - - - - - - -
22/07:30pm 30.8 N 3 7 1010.5 - - - - - - - - -
22/07:00pm 30.6 N 4 8 1010.2 - - - - - - - - -
22/06:30pm 31.1 N 5 8 1010.0 - - - - - - - - -
22/06:00pm 30.8 NW 4 9 1009.6 - - - - - - - - -
22/05:30pm 30.9 NW 5 10 1009.3 - - - - - - - - -
22/05:00pm 32.0 N 5 10 1009.0 - - - - - - - - -
22/04:30pm 31.2 N 7 13 1008.9 - - - - - - - - -
22/04:00pm 31.7 N 7 14 1009.0 - - - - - - - - -
22/03:30pm 31.2 N 5 13 1009.4 - - - - - - - - -
22/03:00pm 31.3 N 6 14 1009.7 - - - - - - - - -
22/02:30pm 31.1 NNW 8 14 1010.2 - - - - - - - - -
22/02:00pm 30.2 NW 8 16 1010.8 - - - - - - - - -
22/01:30pm 30.4 NW 7 13 1011.4 - - - - - - - - -
22/01:00pm 30.6 NW 8 12 1012.0 - - - - - - - - -
22/12:30pm 29.8 WNW 7 13 1012.7 - - - - - - - - -
22/12:00pm 29.7 WNW 7 11 1013.1 - - - - - - - - -
22/11:30am 28.5 W 6 8 1013.6 - - - - - - - - -
22/11:00am 28.5 W 5 7 1014.0 - - - - - - - - -
22/10:30am 28.1 W 3 5 1014.4 - - - - - - - - -
22/10:00am 28.1 WSW 4 5 1014.5 - - - - - - - - -
22/09:30am 28.3 WSW 5 7 1014.3 - - - - - - - - -
22/09:00am 29.2 N 2 5 1014.2 - - - - - - - - -
22/08:30am 28.9 N 2 6 1014.3 - - - - - - - - -
22/08:00am 28.5 ENE 3 7 1013.8 - - - - - - - - -
22/07:30am 27.7 NE 3 6 1013.6 - - - - - - - - -
22/07:00am 27.1 N 3 4 1013.2 - - - - - - - - -
22/06:30am 26.5 NNE 3 5 1013.2 - - - - - - - - -
22/06:00am 26.3 N 3 7 1012.9 - - - - - - - - -
22/05:30am 26.5 NNE 5 8 1012.8 - - - - - - - - -
22/05:00am 26.2 NNE 5 9 1012.6 - - - - - - - - -
22/04:30am 26.1 ENE 5 10 1012.8 - - - - - - - - -
22/04:00am 26.6 ENE 5 9 1012.6 - - - - - - - - -
22/03:30am 27.1 NE 3 6 1012.2 - - - - - - - - -
22/03:00am 27.2 NNE 3 6 1012.1 - - - - - - - - -
22/02:30am 27.2 NNE 4 8 1012.3 - - - - - - - - -
22/02:00am 27.2 N 3 7 1012.7 - - - - - - - - -
22/01:30am 27.6 N 3 6 1012.9 - - - - - - - - -
22/01:00am 27.7 NNE 5 10 1013.2 - - - - - - - - -
22/12:30am 27.9 N 5 11 1013.7 - - - - - - - - -
22/12:00am 27.9 N 6 14 1013.8 - - - - - - - - -
 
Date/Time
CST
Temp

°C
Wind Pressure Rain
since 9am
mm
Weather Cloud Vis
km
Sea
Height
m
Swell
Dir
 
Speed
knots
Gust
knots
hPa Trend Height
m
Period
s
Dir
21/11:30pm 28.5 NNW 6 12 1014.0 - - - - - - - - -
21/11:00pm 28.7 W 7 13 1014.2 - - - - - - - - -
21/10:30pm 28.8 WNW 3 4 1014.1 - - - - - - - - -
21/10:00pm 29.0 E 5 8 1013.7 - - - - - - - - -
21/09:30pm 29.6 N 2 4 1013.2 - - - - - - - - -
21/09:00pm 29.7 SW 5 6 1012.6 - - - - - - - - -
21/08:30pm 30.1 W 3 8 1012.2 - - - - - - - - -
21/08:00pm 30.4 NW 3 4 1011.8 - - - - - - - - -
21/07:30pm 31.0 NNW 3 5 1011.5 - - - - - - - - -
21/07:00pm 30.8 NNW 4 7 1011.1 - - - - - - - - -
21/06:30pm 30.9 NNW 5 8 1010.9 - - - - - - - - -
21/06:00pm 31.6 N 4 9 1010.7 - - - - - - - - -
21/05:30pm 31.8 NNW 6 11 1010.3 - - - - - - - - -
21/05:00pm 31.7 N 7 13 1010.0 - - - - - - - - -
21/04:30pm 32.1 N 8 13 1009.9 - - - - - - - - -
21/04:00pm 31.6 NNE 9 15 1009.9 - - - - - - - - -
21/03:30pm 31.5 N 9 16 1010.1 - - - - - - - - -
21/03:00pm 30.9 N 11 15 1010.5 - - - - - - - - -
21/02:30pm 31.7 NNW 6 14 1010.8 - - - - - - - - -
21/02:00pm 30.8 WNW 10 17 1011.5 - - - - - - - - -
21/01:30pm 31.2 WNW 8 17 1012.1 - - - - - - - - -
21/01:00pm 30.1 WNW 11 18 1012.8 - - - - - - - - -
21/12:30pm 30.3 NW 10 16 1013.3 - - - - - - - - -
21/12:00pm 33.1 ENE 2 5 1014.1 - - - - - - - - -
21/11:30am 31.1 SSE 4 6 1014.4 - - - - - - - - -
21/11:00am 30.3 ESE 5 8 1014.8 - - - - - - - - -
21/10:30am 29.6 ESE 8 10 1015.3 - - - - - - - - -
21/10:00am 28.9 ESE 8 11 1015.6 - - - - - - - - -
21/09:30am 29.2 E 9 14 1015.6 - - - - - - - - -
21/09:00am 28.6 E 10 15 1015.1 - - - - - - - - -
21/08:30am 28.7 ENE 5 9 1014.8 - - - - - - - - -
21/08:00am 28.0 ENE 3 6 1014.5 - - - - - - - - -
21/07:30am 27.6 ENE 3 6 1014.2 - - - - - - - - -
21/07:00am 27.3 ENE 2 4 1014.1 - - - - - - - - -
21/06:30am 27.1 ENE 3 6 1013.7 - - - - - - - - -
21/06:00am 27.1 ENE 3 6 1013.4 - - - - - - - - -
21/05:30am 26.9 NE 4 6 1013.0 - - - - - - - - -
21/05:00am 27.0 NE 5 8 1013.0 - - - - - - - - -
21/04:30am 27.1 ENE 5 9 1013.0 - - - - - - - - -
21/04:00am 27.2 ENE 4 7 1012.9 - - - - - - - - -
21/03:30am 27.1 ENE 3 6 1012.7 - - - - - - - - -
21/03:00am 27.3 NE 4 8 1012.7 - - - - - - - - -
21/02:30am 27.6 NNE 4 7 1012.9 - - - - - - - - -
21/02:00am 28.0 N 4 7 1013.1 - - - - - - - - -
21/01:30am 28.1 NW 4 8 1013.1 - - - - - - - - -
21/01:00am 28.4 NW 5 9 1013.3 - - - - - - - - -
21/12:30am 28.3 NNW 5 10 1013.4 - - - - - - - - -
21/12:00am 28.4 NW 8 15 1013.5 - - - - - - - - -
 
Date/Time
CST
Temp

°C
Wind Pressure Rain
since 9am
mm
Weather Cloud Vis
km
Sea
Height
m
Swell
Dir
 
Speed
knots
Gust
knots
hPa Trend Height
m
Period
s
Dir
20/11:30pm 28.4 NW 8 15 1013.5 - - - - - - - - -
20/11:00pm 28.4 NE 3 6 1013.3 - - - - - - - - -
20/10:30pm 28.1 NE 2 5 1013.1 - - - - - - - - -
20/10:00pm 29.1 E 7 9 1012.8 - - - - - - - - -
20/09:30pm 29.8 ENE 5 9 1012.5 - - - - - - - - -
20/09:00pm 30.1 ENE 1 3 1012.2 - - - - - - - - -
20/08:30pm 30.2 NW 2 3 1011.9 - - - - - - - - -
20/08:00pm 30.1 WNW 2 3 1011.4 - - - - - - - - -
20/07:30pm 30.3 NW 3 5 1010.9 - - - - - - - - -
20/07:00pm 30.8 NNW 3 7 1010.5 - - - - - - - - -
20/06:30pm 30.9 NNW 6 9 1010.1 - - - - - - - - -
20/06:00pm 31.6 N 5 8 1009.7 - - - - - - - - -
20/05:30pm 31.7 NNW 6 12 1009.2 - - - - - - - - -
20/05:00pm 32.6 N 4 9 1008.9 - - - - - - - - -
20/04:30pm 32.4 N 5 13 1008.9 - - - - - - - - -
20/04:00pm 31.4 NNE 9 16 1008.6 - - - - - - - - -
20/03:30pm 31.1 NNE 8 15 1008.9 - - - - - - - - -
20/03:00pm 31.4 N 7 13 1009.3 - - - - - - - - -
20/02:30pm 31.7 N 8 14 1009.6 - - - - - - - - -
20/02:00pm 30.7 NNW 7 13 1010.1 - - - - - - - - -
20/01:30pm 30.5 WNW 7 14 1011.0 - - - - - - - - -
20/01:00pm 30.2 WNW 9 13 1011.5 - - - - - - - - -

Other Formats:

Comma delimited format used in spreadsheet applications
http://www.bom.gov.au/fwo/IDD60701/IDD60701.95122.axf

JavaScript Object Notation format (JSON) in row-major order
http://www.bom.gov.au/fwo/IDD60701/IDD60701.95122.json